createdAt,value
2022-11-22T00:02:15.986Z,1.30
2022-11-22T00:04:43.602Z,1.35
2022-11-22T00:07:11.010Z,2.00
2022-11-22T00:09:38.346Z,0.98
2022-11-22T00:12:05.811Z,1.13
2022-11-22T00:14:33.225Z,1.23
2022-11-22T00:17:00.660Z,1.35
2022-11-22T00:19:28.391Z,0.93
2022-11-22T00:21:56.087Z,1.30
2022-11-22T00:24:23.515Z,0.98
2022-11-22T00:26:50.889Z,1.58
2022-11-22T00:29:18.403Z,1.02
2022-11-22T00:31:45.754Z,1.10
2022-11-22T00:34:13.135Z,0.90
2022-11-22T00:36:40.454Z,1.73
2022-11-22T00:39:07.846Z,1.45
2022-11-22T00:41:37.050Z,1.27
2022-11-22T00:44:04.586Z,1.25
2022-11-22T00:46:31.975Z,1.65
2022-11-22T00:48:59.335Z,0.90
2022-11-22T00:51:26.774Z,1.70
2022-11-22T00:53:54.154Z,0.80
2022-11-22T00:56:21.505Z,1.10
2022-11-22T00:58:48.869Z,0.82
2022-11-22T01:01:16.286Z,0.82
2022-11-22T01:03:43.737Z,0.90
2022-11-22T01:06:11.147Z,1.00
2022-11-22T01:08:38.602Z,0.73
2022-11-22T01:11:05.985Z,0.90
2022-11-22T01:13:33.922Z,0.90
2022-11-22T01:16:03.195Z,0.77
2022-11-22T01:18:31.073Z,1.48
2022-11-22T01:20:58.716Z,1.13
2022-11-22T01:23:26.681Z,0.85
2022-11-22T01:25:54.337Z,1.75
2022-11-22T01:28:21.803Z,1.13
2022-11-22T01:30:53.239Z,0.73
2022-11-22T01:33:21.190Z,1.10
2022-11-22T01:35:48.689Z,1.00
2022-11-22T01:38:16.122Z,0.80
2022-11-22T01:45:30.326Z,1.35
2022-11-22T01:48:12.972Z,1.00
2022-11-22T01:50:44.001Z,0.98
2022-11-22T01:53:15.742Z,1.83
2022-11-22T01:55:43.670Z,0.95
2022-11-22T01:58:15.352Z,0.93
2022-11-22T02:00:44.171Z,0.80
2022-11-22T02:03:15.267Z,1.00
2022-11-22T02:05:42.757Z,0.70
2022-11-22T02:08:25.488Z,0.82
2022-11-22T02:10:55.406Z,1.08
2022-11-22T02:13:23.719Z,0.45
2022-11-22T02:15:52.498Z,0.50
2022-11-22T02:18:20.196Z,0.82
2022-11-22T02:20:47.780Z,0.85
2022-11-22T02:23:45.744Z,1.27
2022-11-22T02:26:14.453Z,1.00
2022-11-22T02:28:41.877Z,1.10
2022-11-22T02:31:09.321Z,1.00
2022-11-22T02:33:36.663Z,1.20
2022-11-22T02:36:04.205Z,0.80
2022-11-22T02:38:34.961Z,0.77
2022-11-22T02:41:10.548Z,0.82
2022-11-22T02:43:40.469Z,0.65
2022-11-22T02:46:13.690Z,0.57
2022-11-22T02:48:45.121Z,0.75
2022-11-22T02:51:17.040Z,0.70
2022-11-22T02:53:44.732Z,0.95
2022-11-22T02:56:12.043Z,0.90
2022-11-22T02:58:39.392Z,0.80
2022-11-22T03:01:06.803Z,0.80
2022-11-22T03:03:34.210Z,0.98
2022-11-22T03:06:02.588Z,0.80
2022-11-22T03:08:30.631Z,1.17
2022-11-22T03:11:01.067Z,0.68
2022-11-22T03:13:28.447Z,0.70
2022-11-22T03:15:55.879Z,1.27
2022-11-22T03:18:23.305Z,0.70
2022-11-22T03:20:50.676Z,0.70
2022-11-22T03:23:18.085Z,0.90
2022-11-22T03:25:45.422Z,0.70
2022-11-22T03:28:13.222Z,1.20
2022-11-22T03:30:41.696Z,0.73
2022-11-22T03:33:09.206Z,1.00
2022-11-22T03:35:36.602Z,0.75
2022-11-22T03:38:05.395Z,1.02
2022-11-22T03:40:33.566Z,1.17
2022-11-22T03:43:02.361Z,1.05
2022-11-22T03:45:30.049Z,1.30
2022-11-22T03:47:57.628Z,1.00
2022-11-22T03:50:25.725Z,1.27
2022-11-22T03:52:53.129Z,0.77
2022-11-22T03:55:20.514Z,0.50
2022-11-22T03:57:47.947Z,1.27
2022-11-22T04:00:15.764Z,0.70
2022-11-22T04:02:43.134Z,1.00
2022-11-22T04:05:10.623Z,0.70
2022-11-22T04:07:38.136Z,0.90
2022-11-22T04:10:06.483Z,1.10
2022-11-22T04:12:34.046Z,0.93
2022-11-22T04:15:08.104Z,1.10
2022-11-22T04:17:46.207Z,0.80
2022-11-22T04:20:34.495Z,1.30
2022-11-22T04:23:09.732Z,1.27
2022-11-22T04:25:40.317Z,0.60
2022-11-22T04:28:09.418Z,0.50
2022-11-22T04:31:09.468Z,0.70
2022-11-22T04:33:36.898Z,0.73
2022-11-22T04:36:06.685Z,0.80
2022-11-22T04:38:37.670Z,1.30
2022-11-22T04:41:05.042Z,0.80
2022-11-22T04:43:51.090Z,0.77
2022-11-22T04:46:18.386Z,0.80
2022-11-22T04:48:45.698Z,0.90
2022-11-22T04:51:33.457Z,0.88
2022-11-22T04:54:00.876Z,1.70
2022-11-22T04:56:28.277Z,0.73
2022-11-22T04:58:55.646Z,1.00
2022-11-22T05:01:23.058Z,0.90
2022-11-22T05:03:50.443Z,0.80
2022-11-22T05:06:17.817Z,0.65
2022-11-22T05:08:45.292Z,1.33
2022-11-22T05:11:12.645Z,1.02
2022-11-22T05:13:42.315Z,0.93
2022-11-22T05:16:12.501Z,0.80
2022-11-22T05:18:40.011Z,0.77
2022-11-22T05:21:09.653Z,0.90
2022-11-22T05:23:55.395Z,0.80
2022-11-22T05:26:24.530Z,0.80
2022-11-22T05:28:52.268Z,0.70
2022-11-22T05:31:25.481Z,1.35
2022-11-22T05:33:54.710Z,0.77
2022-11-22T05:36:22.964Z,1.30
2022-11-22T05:38:50.686Z,0.70
2022-11-22T05:41:18.983Z,0.80
2022-11-22T05:43:46.449Z,0.80
2022-11-22T05:46:21.032Z,0.75
2022-11-22T05:48:54.968Z,0.70
2022-11-22T05:51:32.503Z,0.90
2022-11-22T05:54:01.256Z,1.02
2022-11-22T05:56:28.736Z,0.80
2022-11-22T05:58:56.103Z,1.05
2022-11-22T06:01:24.442Z,0.65
2022-11-22T06:03:52.266Z,0.93
2022-11-22T06:06:19.652Z,0.73
2022-11-22T06:08:48.371Z,1.00
2022-11-22T06:11:24.612Z,0.63
2022-11-22T06:13:54.565Z,0.95
2022-11-22T06:16:22.379Z,0.70
2022-11-22T06:18:50.318Z,1.33
2022-11-22T06:21:20.387Z,0.90
2022-11-22T06:23:47.824Z,0.68
2022-11-22T06:26:17.729Z,1.17
2022-11-22T06:28:46.419Z,0.90
2022-11-22T06:31:16.587Z,1.05
2022-11-22T06:33:44.496Z,0.80
2022-11-22T06:36:14.368Z,0.63
2022-11-22T06:38:43.461Z,0.70
2022-11-22T06:41:23.511Z,0.88
2022-11-22T06:43:52.586Z,0.90
2022-11-22T06:46:24.552Z,0.95
2022-11-22T06:48:52.343Z,0.63
2022-11-22T06:51:25.737Z,1.00
2022-11-22T06:53:56.999Z,0.75
2022-11-22T06:56:33.343Z,1.00
2022-11-22T06:59:06.602Z,1.00
2022-11-22T07:01:35.504Z,0.98
2022-11-22T07:04:04.279Z,1.17
2022-11-22T07:06:34.593Z,1.13
2022-11-22T07:09:03.575Z,0.93
2022-11-22T07:11:31.694Z,1.20
2022-11-22T07:14:07.082Z,0.90
2022-11-22T07:16:36.771Z,0.90
2022-11-22T07:19:04.964Z,0.68
2022-11-22T07:21:32.730Z,0.90
2022-11-22T07:24:00.234Z,1.27
2022-11-22T07:26:28.646Z,1.13
2022-11-22T07:28:56.598Z,0.70
2022-11-22T07:31:24.029Z,1.10
2022-11-22T07:33:51.417Z,0.68
2022-11-22T07:36:20.862Z,0.80
2022-11-22T07:38:49.447Z,0.80
2022-11-22T07:41:18.268Z,1.05
2022-11-22T07:43:46.994Z,1.25
2022-11-22T07:46:31.260Z,1.00
2022-11-22T07:49:01.949Z,1.20
2022-11-22T07:51:30.040Z,1.30
2022-11-22T07:53:57.970Z,1.15
2022-11-22T08:05:29.967Z,1.10
2022-11-22T08:07:57.619Z,1.75
2022-11-22T08:10:25.006Z,1.20
2022-11-22T08:12:52.398Z,1.27
2022-11-22T08:15:19.804Z,2.25
2022-11-22T08:17:47.199Z,1.40
2022-11-22T08:20:14.909Z,1.52
2022-11-22T08:22:42.673Z,1.30
2022-11-22T08:25:12.717Z,1.92
2022-11-22T08:27:41.351Z,2.15
2022-11-22T08:30:10.443Z,1.17
2022-11-22T08:32:38.165Z,2.05
2022-11-22T08:35:06.030Z,1.70
2022-11-22T08:37:33.500Z,1.60
2022-11-22T08:40:00.940Z,1.40
2022-11-22T08:42:28.317Z,1.98
2022-11-22T08:44:55.815Z,1.50
2022-11-22T08:47:23.166Z,4.55
2022-11-22T08:49:50.772Z,1.58
2022-11-22T08:52:18.173Z,1.60
2022-11-22T08:54:45.554Z,1.70
2022-11-22T08:57:12.931Z,1.75
2022-11-22T08:59:40.410Z,1.60
2022-11-22T09:02:08.746Z,2.13
2022-11-22T09:04:36.188Z,1.67
2022-11-22T09:09:50.987Z,1.98
2022-11-22T09:12:19.158Z,2.00
2022-11-22T09:14:46.547Z,1.85
2022-11-22T09:17:17.806Z,1.90
2022-11-22T09:19:45.786Z,2.00
2022-11-22T09:22:13.190Z,2.08
2022-11-22T09:24:40.591Z,2.30
2022-11-22T09:27:08.050Z,2.45
2022-11-22T09:29:35.570Z,1.83
2022-11-22T09:32:03.527Z,2.17
2022-11-22T09:34:30.950Z,2.10
2022-11-22T09:36:58.371Z,2.72
2022-11-22T09:39:25.754Z,2.67
2022-11-22T09:42:02.511Z,2.10
2022-11-22T09:44:29.864Z,2.17
2022-11-22T09:47:20.651Z,2.03
2022-11-22T09:50:09.733Z,2.58
2022-11-22T09:52:54.974Z,2.33
2022-11-22T09:55:29.162Z,2.30
2022-11-22T09:58:24.160Z,2.35
2022-11-22T10:00:53.585Z,2.72
2022-11-22T10:04:01.357Z,2.85
2022-11-22T10:06:48.854Z,2.83
2022-11-22T10:09:36.979Z,2.25
2022-11-22T10:12:11.892Z,2.22
2022-11-22T10:15:05.038Z,2.10
2022-11-22T10:17:41.272Z,2.30
2022-11-22T10:20:24.913Z,2.70
2022-11-22T10:22:52.864Z,2.13
2022-11-22T10:25:24.230Z,1.70
2022-11-22T10:28:00.887Z,2.15
2022-11-22T10:30:35.871Z,1.80
2022-11-22T10:33:27.017Z,2.30
2022-11-22T10:36:04.836Z,1.45
2022-11-22T10:39:07.394Z,1.92
2022-11-22T10:41:51.888Z,1.80
2022-11-22T10:44:37.385Z,1.30
2022-11-22T10:47:34.404Z,1.80
2022-11-22T10:50:11.201Z,1.65
2022-11-22T10:52:46.850Z,1.88
2022-11-22T10:55:46.636Z,1.60
2022-11-22T10:58:22.883Z,2.00
2022-11-22T11:01:00.732Z,1.75
2022-11-22T11:03:30.428Z,1.70
2022-11-22T11:06:26.645Z,1.98
2022-11-22T11:10:03.014Z,2.58
2022-11-22T11:11:47.135Z,1.60
2022-11-22T11:14:20.031Z,2.15
2022-11-22T11:16:48.063Z,2.05
2022-11-22T11:19:20.779Z,1.83
2022-11-22T11:21:57.572Z,1.52
2022-11-22T11:24:28.105Z,1.50
2022-11-22T11:26:58.389Z,1.75
2022-11-22T11:30:01.507Z,1.70
2022-11-22T11:32:28.997Z,1.77
2022-11-22T11:35:03.895Z,1.55
2022-11-22T11:37:37.080Z,2.15
2022-11-22T11:40:28.367Z,1.67
2022-11-22T11:45:41.888Z,1.70
2022-11-22T11:48:43.628Z,1.80
2022-11-22T11:51:11.023Z,1.63
2022-11-22T11:53:39.951Z,1.92
2022-11-22T11:56:29.161Z,2.15
2022-11-22T11:58:59.069Z,2.28
2022-11-22T12:01:27.056Z,1.50
2022-11-22T12:04:01.323Z,1.40
2022-11-22T12:06:30.527Z,1.48
2022-11-22T12:09:07.942Z,1.65
2022-11-22T12:11:49.234Z,1.33
2022-11-22T12:16:53.077Z,1.90
2022-11-22T12:19:39.149Z,1.35
2022-11-22T12:22:54.713Z,1.20
2022-11-22T12:25:33.547Z,1.73
2022-11-22T12:28:10.407Z,1.20
2022-11-22T12:30:41.115Z,2.20
2022-11-22T12:33:13.651Z,1.38
2022-11-22T12:35:45.870Z,1.10
2022-11-22T12:38:28.801Z,1.05
2022-11-22T12:41:02.482Z,1.20
2022-11-22T12:43:43.734Z,1.60
2022-11-22T12:46:31.395Z,1.40
2022-11-22T12:49:07.694Z,1.52
2022-11-22T12:51:50.099Z,1.58
2022-11-22T12:54:32.589Z,1.40
2022-11-22T12:57:05.433Z,1.10
2022-11-22T12:59:32.794Z,1.55
2022-11-22T13:02:22.171Z,1.30
2022-11-22T13:05:16.788Z,1.13
2022-11-22T13:07:56.082Z,0.82
2022-11-22T13:10:44.649Z,1.00
2022-11-22T13:13:22.953Z,0.90
2022-11-22T13:15:53.062Z,1.00
2022-11-22T13:18:24.882Z,1.53
2022-11-22T13:21:17.758Z,1.05
2022-11-22T13:23:58.989Z,1.50
2022-11-22T13:27:03.678Z,1.15
2022-11-22T13:29:34.531Z,1.10
2022-11-22T13:32:03.635Z,0.85
2022-11-22T13:34:32.323Z,1.30
2022-11-22T13:37:15.637Z,2.28
2022-11-22T13:39:47.039Z,1.40
2022-11-22T13:42:19.706Z,1.35
2022-11-22T13:44:56.259Z,1.33
2022-11-22T13:47:23.762Z,1.30
2022-11-22T13:49:53.927Z,1.10
2022-11-22T13:52:21.303Z,1.63
2022-11-22T13:54:56.333Z,1.40
2022-11-22T13:57:42.676Z,1.98
2022-11-22T14:00:13.921Z,2.03
2022-11-22T14:02:44.038Z,2.10
2022-11-22T14:05:21.973Z,1.90
2022-11-22T14:07:51.753Z,1.42
2022-11-22T14:10:52.009Z,1.67
2022-11-22T14:13:48.227Z,1.25
2022-11-22T14:17:05.111Z,1.65
2022-11-22T14:20:16.803Z,1.58
2022-11-22T14:23:01.378Z,1.30
2022-11-22T14:25:41.320Z,1.40
2022-11-22T14:28:32.395Z,1.23
2022-11-22T14:31:00.121Z,1.52
2022-11-22T14:33:31.535Z,1.75
2022-11-22T14:36:07.778Z,1.10
2022-11-22T14:38:38.898Z,1.17
2022-11-22T14:44:03.545Z,1.27
2022-11-22T14:46:53.305Z,1.38
2022-11-22T14:49:43.225Z,1.20
2022-11-22T14:52:22.738Z,0.98
2022-11-22T14:54:56.254Z,1.10
2022-11-22T14:57:26.632Z,1.25
2022-11-22T15:00:15.395Z,0.85
2022-11-22T15:02:57.380Z,0.88
2022-11-22T15:09:11.859Z,0.90
2022-11-22T15:09:23.397Z,1.00
2022-11-22T15:11:59.963Z,1.35
2022-11-22T15:14:36.381Z,1.52
2022-11-22T15:57:37.581Z,1.40
2022-11-22T16:00:21.533Z,1.05
2022-11-22T16:02:51.592Z,1.20
2022-11-22T16:06:06.743Z,1.42
2022-11-22T16:08:21.600Z,1.50
2022-11-22T16:10:51.016Z,1.42
2022-11-22T16:13:21.176Z,1.52
2022-11-22T16:16:05.068Z,1.38
2022-11-22T16:18:32.887Z,1.40
2022-11-22T16:21:00.226Z,1.65
2022-11-22T16:23:29.307Z,1.73
2022-11-22T16:26:29.319Z,1.38
2022-11-22T16:29:22.825Z,1.48
2022-11-22T16:31:50.223Z,2.08
2022-11-22T16:34:17.823Z,1.63
2022-11-22T16:36:45.203Z,2.45
2022-11-22T16:39:12.585Z,2.42
2022-11-22T16:41:39.960Z,2.50
2022-11-22T16:44:12.853Z,2.50
2022-11-22T16:46:43.699Z,2.08
2022-11-22T16:49:23.600Z,2.10
2022-11-22T16:51:51.552Z,1.73
2022-11-22T16:54:20.842Z,1.90
2022-11-22T16:56:48.334Z,1.25
2022-11-22T16:59:15.887Z,1.52
2022-11-22T17:01:44.278Z,1.85
2022-11-22T17:04:23.808Z,1.58
2022-11-22T17:06:51.786Z,1.65
2022-11-22T17:09:19.895Z,3.05
2022-11-22T17:11:47.457Z,2.42
2022-11-22T17:14:16.894Z,3.13
2022-11-22T17:16:45.912Z,2.80
2022-11-22T17:19:37.647Z,2.28
2022-11-22T17:22:01.240Z,2.90
2022-11-22T17:24:29.210Z,2.83
2022-11-22T17:26:57.312Z,3.35
2022-11-22T17:32:13.729Z,2.88
2022-11-22T17:34:41.146Z,3.05
2022-11-22T17:37:12.596Z,3.00
2022-11-22T17:39:40.682Z,2.88
2022-11-22T17:42:08.294Z,3.45
2022-11-22T17:44:35.725Z,3.30
2022-11-22T17:47:03.136Z,3.15
2022-11-22T17:49:30.806Z,3.33
2022-11-22T17:51:58.471Z,2.95
2022-11-22T17:54:25.922Z,3.28
2022-11-22T17:56:53.309Z,3.00
2022-11-22T17:59:20.710Z,2.58
2022-11-22T18:01:48.066Z,2.90
2022-11-22T18:04:17.425Z,2.92
2022-11-22T18:06:44.844Z,3.28
2022-11-22T18:09:12.320Z,2.78
2022-11-22T18:11:39.691Z,4.28
2022-11-22T18:14:07.197Z,3.65
2022-11-22T18:16:34.654Z,3.33
2022-11-22T18:19:02.364Z,3.58
2022-11-22T18:21:34.415Z,3.00
2022-11-22T18:24:02.173Z,4.13
2022-11-22T18:26:45.212Z,5.10
2022-11-22T18:29:43.550Z,3.78
2022-11-22T18:32:01.830Z,4.50
2022-11-22T18:34:30.322Z,4.18
2022-11-22T18:37:01.920Z,4.30
2022-11-22T18:39:32.608Z,4.68
2022-11-22T18:42:00.225Z,4.53
2022-11-22T18:44:27.853Z,5.70
2022-11-22T18:46:55.359Z,5.28
2022-11-22T18:49:23.315Z,4.43
2022-11-22T18:51:50.743Z,4.72
2022-11-22T18:54:18.637Z,4.50
2022-11-22T18:56:45.979Z,3.85
2022-11-22T18:59:13.841Z,4.43
2022-11-22T19:01:41.430Z,4.90
2022-11-22T19:04:13.660Z,5.10
2022-11-22T19:06:41.969Z,4.68
2022-11-22T19:09:09.919Z,5.00
2022-11-22T19:11:37.580Z,4.90
2022-11-22T19:14:05.231Z,6.25
2022-11-22T19:16:32.909Z,4.95
2022-11-22T19:19:00.441Z,5.55
2022-11-22T19:21:29.131Z,5.10
2022-11-22T19:23:57.059Z,5.82
2022-11-22T19:26:26.438Z,4.75
2022-11-22T19:28:56.161Z,4.60
2022-11-22T19:31:27.850Z,4.88
2022-11-22T19:33:55.498Z,4.90
2022-11-22T19:40:58.523Z,4.53
2022-11-22T19:43:25.937Z,4.28
2022-11-22T19:45:53.324Z,4.63
2022-11-22T19:48:20.731Z,5.00
2022-11-22T19:50:48.207Z,6.22
2022-11-22T19:53:15.602Z,5.75
2022-11-22T19:55:45.574Z,5.15
2022-11-22T19:58:13.194Z,6.82
2022-11-22T20:00:41.526Z,6.57
2022-11-22T20:03:14.808Z,6.55
2022-11-22T20:05:42.239Z,5.85
2022-11-22T20:08:10.198Z,7.03
2022-11-22T20:10:39.916Z,7.88
2022-11-22T20:13:10.610Z,6.47
2022-11-22T20:15:39.454Z,5.70
2022-11-22T20:18:06.931Z,5.93
2022-11-22T20:20:34.396Z,6.22
2022-11-22T20:23:01.756Z,7.13
2022-11-22T20:25:29.211Z,6.07
2022-11-22T20:27:56.653Z,7.03
2022-11-22T20:30:24.050Z,7.25
2022-11-22T20:32:52.725Z,7.35
2022-11-22T20:35:20.084Z,7.28
2022-11-22T20:37:47.483Z,7.07
2022-11-22T20:40:16.329Z,8.05
2022-11-22T20:42:43.736Z,9.73
2022-11-22T20:45:11.403Z,7.97
2022-11-22T20:47:39.062Z,7.43
2022-11-22T20:50:07.091Z,6.20
2022-11-22T20:52:34.493Z,6.55
2022-11-22T20:55:05.082Z,6.68
2022-11-22T20:57:33.013Z,6.10
2022-11-22T21:00:00.585Z,6.55
2022-11-22T21:02:28.180Z,6.60
2022-11-22T21:04:55.596Z,7.90
2022-11-22T21:07:23.316Z,7.03
2022-11-22T21:09:50.675Z,8.18
2022-11-22T21:12:19.208Z,9.90
2022-11-22T21:14:48.431Z,10.13
2022-11-22T21:17:39.639Z,8.65
2022-11-22T21:20:05.719Z,8.95
2022-11-22T21:22:33.098Z,8.63
2022-11-22T21:25:01.027Z,8.82
2022-11-22T21:27:28.584Z,8.45
2022-11-22T21:29:56.049Z,9.10
2022-11-22T21:32:23.578Z,8.15
2022-11-22T21:34:50.973Z,8.38
2022-11-22T21:37:18.570Z,8.60
2022-11-22T21:39:45.932Z,7.93
2022-11-22T21:42:13.301Z,8.10
2022-11-22T21:44:40.734Z,8.82
2022-11-22T21:47:08.115Z,9.20
2022-11-22T21:49:35.531Z,7.55
2022-11-22T21:52:03.008Z,9.10
2022-11-22T21:54:30.706Z,8.75
2022-11-22T21:57:02.570Z,8.40
2022-11-22T21:59:30.692Z,8.27
2022-11-22T22:01:58.339Z,8.23
2022-11-22T22:04:25.900Z,9.15
2022-11-22T22:06:53.344Z,8.23
2022-11-22T22:09:20.750Z,8.68
2022-11-22T22:11:48.123Z,9.10
2022-11-22T22:14:15.637Z,9.30
2022-11-22T22:16:43.039Z,9.00
2022-11-22T22:19:11.150Z,8.85
2022-11-22T22:21:38.621Z,8.75
2022-11-22T22:24:06.387Z,8.55
2022-11-22T22:26:33.758Z,8.38
2022-11-22T22:29:01.161Z,9.38
2022-11-22T22:31:28.525Z,9.15
2022-11-22T22:33:57.383Z,11.07
2022-11-22T22:36:26.573Z,9.32
2022-11-22T22:38:54.662Z,9.88
2022-11-22T22:41:22.236Z,9.50
2022-11-22T22:43:49.943Z,9.60
2022-11-22T22:46:23.053Z,9.27
2022-11-22T22:48:51.870Z,10.23
2022-11-22T22:51:30.619Z,8.05
2022-11-22T22:54:00.665Z,8.55
2022-11-22T22:56:29.876Z,8.77
2022-11-22T22:59:00.664Z,9.23
2022-11-22T23:01:30.346Z,8.93
2022-11-22T23:08:21.135Z,8.45
2022-11-22T23:10:48.496Z,8.80
2022-11-22T23:13:15.890Z,8.25
2022-11-22T23:15:57.931Z,8.25
2022-11-22T23:18:27.148Z,8.15
2022-11-22T23:21:01.881Z,8.27
2022-11-22T23:23:29.757Z,8.15
2022-11-22T23:26:07.122Z,8.93
2022-11-22T23:28:34.615Z,8.05
2022-11-22T23:31:11.119Z,8.57
2022-11-22T23:33:38.895Z,7.97
2022-11-22T23:36:08.660Z,8.50
2022-11-22T23:38:36.725Z,8.00
2022-11-22T23:41:04.685Z,8.40
2022-11-22T23:43:32.657Z,8.63
2022-11-22T23:46:00.046Z,7.65
2022-11-22T23:48:27.888Z,8.40
2022-11-22T23:50:55.627Z,7.20
2022-11-22T23:53:23.039Z,7.50
2022-11-22T23:55:50.388Z,6.80
2022-11-22T23:58:17.768Z,6.82
